Terminal Aerodrome Forecast
Issued by NWS Cleveland, OH

Home | Current Version | Previous Version | Graphics & Text | Print | Product List | Glossary Off
Versions: 1 2 3 4 5 6 7 8 9 10 11 12 13 14 15 16

000
FTUS41 KCLE 172335
TAFMFD
TAF
KMFD 172335Z 1800/1824 20012KT P6SM BKN120
      TEMPO 1800/1802 -SHRA OVC040
     FM180800 21008KT P6SM SCT025 BKN250
      TEMPO 1809/1813 BKN025
     FM181400 24012KT P6SM BKN035
     FM182100 26012KT P6SM SCT035=

USA.gov is the U.S. government's official web portal to all federal, state and local government web resources and services.